Pagrindinis puslapis
METAR-TAF:

METAR-TAF

Oro uostai :

Mecas-Nansi-Lotaringija, Prancūzija

platuma: 48-59N, ilguma: 006-15E, Aukštis: 264 m

Dabartinis oras

Ataskaita buvo paskelbta 24 minutes, ne 20:30 UTC
Vėjas 17 kt iš Rytų
Temperatūra 14°C
Drėgmė 44%
Slėgis 1022 hPa
Matomumas 10 km arba daugiau
nėra debesų žemiau 1500 m ir nėra kamuolinių lietaus debesų

METAR: LFJL 202030Z AUTO 08017KT CAVOK 14/02 Q1022 NOSIG

Laikas: 22:54 (20:54 UTC)

Prognozė

Ataskaita buvo paskelbta 3 valandos ir 54 minutes, ne 17:00 UTC
Prognozė galioja nuo 20 metu 18 UTC su 21 metu 18 UTC
Vėjas 16 kt iš Rytų
Matomumas 10 km arba daugiau
nėra debesų žemiau 1500 m ir nėra kamuolinių lietaus debesų
Tapsmas
nuo 21 metu 02 UTC su 21 metu 05 UTC
Vėjas 6 kt iš Rytų

TAF: LFJL 201700Z 2018/2118 08016KT CAVOK BECMG 2102/2105 09006KT

Orai ataskaitas ir orų prognozės (METAR, TAF).

turimą stotys yra geltonos ir raudonos taškus žemėlapyje.

Perkelti pele per norėdami pamatyti stoties vardą.

Tada spustelėkite, norėdami matyti oro stebėjimo ir prognozės.

Norėdami pakeisti žemėlapį: spustelėkite ant žalios mygtukų su juodo kryžiaus žemyn,; žalią mygtuką su brūkšneliu, jei norite nutolinti; arba žalių rodyklių gretimoms žemėlapius.


METAR-TAF: